sensor_id;sensor_type;location;lat;lon;timestamp;temperature;humidity
24430;DHT22;12613;47.408;8.412;2023-08-06T00:01:31;18.60;80.20
24430;DHT22;12613;47.408;8.412;2023-08-06T00:03:56;18.60;80.40
24430;DHT22;12613;47.408;8.412;2023-08-06T00:06:22;18.50;80.50
24430;DHT22;12613;47.408;8.412;2023-08-06T00:08:47;18.50;80.50
24430;DHT22;12613;47.408;8.412;2023-08-06T00:11:13;18.50;80.70
24430;DHT22;12613;47.408;8.412;2023-08-06T00:13:39;18.50;80.60
24430;DHT22;12613;47.408;8.412;2023-08-06T00:16:11;18.50;80.90
24430;DHT22;12613;47.408;8.412;2023-08-06T00:18:37;18.50;81.00
24430;DHT22;12613;47.408;8.412;2023-08-06T00:21:03;18.40;81.10
24430;DHT22;12613;47.408;8.412;2023-08-06T00:23:28;18.40;81.30
24430;DHT22;12613;47.408;8.412;2023-08-06T00:25:54;18.40;81.40
24430;DHT22;12613;47.408;8.412;2023-08-06T00:28:20;18.30;81.30
24430;DHT22;12613;47.408;8.412;2023-08-06T00:30:45;18.30;81.40
24430;DHT22;12613;47.408;8.412;2023-08-06T00:33:11;18.20;81.30
24430;DHT22;12613;47.408;8.412;2023-08-06T00:35:36;18.10;80.90
24430;DHT22;12613;47.408;8.412;2023-08-06T00:38:02;18.10;80.90
24430;DHT22;12613;47.408;8.412;2023-08-06T00:40:28;18.10;81.30
24430;DHT22;12613;47.408;8.412;2023-08-06T00:42:56;18.10;81.20
24430;DHT22;12613;47.408;8.412;2023-08-06T00:45:22;18.00;80.70
24430;DHT22;12613;47.408;8.412;2023-08-06T00:47:48;18.00;80.60
24430;DHT22;12613;47.408;8.412;2023-08-06T00:50:14;18.00;80.80
24430;DHT22;12613;47.408;8.412;2023-08-06T00:52:40;18.00;80.50
24430;DHT22;12613;47.408;8.412;2023-08-06T00:55:06;18.00;80.60
24430;DHT22;12613;47.408;8.412;2023-08-06T00:57:32;17.90;80.10
24430;DHT22;12613;47.408;8.412;2023-08-06T00:59:58;17.90;79.70
24430;DHT22;12613;47.408;8.412;2023-08-06T01:02:23;17.90;79.90
24430;DHT22;12613;47.408;8.412;2023-08-06T01:04:49;17.90;79.60
24430;DHT22;12613;47.408;8.412;2023-08-06T01:15:30;17.70;79.70
24430;DHT22;12613;47.408;8.412;2023-08-06T01:17:57;17.70;79.20
24430;DHT22;12613;47.408;8.412;2023-08-06T01:20:28;17.70;78.90
24430;DHT22;12613;47.408;8.412;2023-08-06T01:22:54;17.70;78.40
24430;DHT22;12613;47.408;8.412;2023-08-06T01:25:19;17.80;78.60
24430;DHT22;12613;47.408;8.412;2023-08-06T01:27:49;17.80;78.30
24430;DHT22;12613;47.408;8.412;2023-08-06T01:32:50;17.80;77.80
24430;DHT22;12613;47.408;8.412;2023-08-06T01:35:19;17.80;77.80
24430;DHT22;12613;47.408;8.412;2023-08-06T01:37:47;17.80;77.90
24430;DHT22;12613;47.408;8.412;2023-08-06T01:40:14;17.70;77.90
24430;DHT22;12613;47.408;8.412;2023-08-06T01:42:39;17.70;77.90
24430;DHT22;12613;47.408;8.412;2023-08-06T01:45:06;17.60;77.80
24430;DHT22;12613;47.408;8.412;2023-08-06T01:47:32;17.70;77.30
24430;DHT22;12613;47.408;8.412;2023-08-06T01:49:58;17.60;77.30
24430;DHT22;12613;47.408;8.412;2023-08-06T01:52:24;17.60;76.80
24430;DHT22;12613;47.408;8.412;2023-08-06T01:54:49;17.60;77.00
24430;DHT22;12613;47.408;8.412;2023-08-06T01:57:15;17.60;76.80
24430;DHT22;12613;47.408;8.412;2023-08-06T01:59:41;17.60;76.50
24430;DHT22;12613;47.408;8.412;2023-08-06T02:02:06;17.60;76.60
24430;DHT22;12613;47.408;8.412;2023-08-06T02:04:32;17.60;76.30
24430;DHT22;12613;47.408;8.412;2023-08-06T02:06:57;17.60;76.10
24430;DHT22;12613;47.408;8.412;2023-08-06T02:09:23;17.60;76.30
24430;DHT22;12613;47.408;8.412;2023-08-06T02:11:49;17.50;76.30
24430;DHT22;12613;47.408;8.412;2023-08-06T02:14:14;17.60;76.50
24430;DHT22;12613;47.408;8.412;2023-08-06T02:16:40;17.60;76.20
24430;DHT22;12613;47.408;8.412;2023-08-06T02:19:05;17.60;76.20
24430;DHT22;12613;47.408;8.412;2023-08-06T02:21:31;17.60;76.00
24430;DHT22;12613;47.408;8.412;2023-08-06T02:23:57;17.60;75.90
24430;DHT22;12613;47.408;8.412;2023-08-06T02:26:23;17.50;75.90
24430;DHT22;12613;47.408;8.412;2023-08-06T02:28:48;17.60;75.90
24430;DHT22;12613;47.408;8.412;2023-08-06T02:31:14;17.60;75.80
24430;DHT22;12613;47.408;8.412;2023-08-06T02:33:39;17.60;75.70
24430;DHT22;12613;47.408;8.412;2023-08-06T02:36:05;17.60;75.60
24430;DHT22;12613;47.408;8.412;2023-08-06T02:38:32;17.70;75.80
24430;DHT22;12613;47.408;8.412;2023-08-06T02:40:57;17.60;75.40
24430;DHT22;12613;47.408;8.412;2023-08-06T02:43:23;17.60;75.10
24430;DHT22;12613;47.408;8.412;2023-08-06T02:45:49;17.60;75.40
24430;DHT22;12613;47.408;8.412;2023-08-06T02:48:14;17.60;75.40
24430;DHT22;12613;47.408;8.412;2023-08-06T02:50:41;17.60;75.40
24430;DHT22;12613;47.408;8.412;2023-08-06T02:53:09;17.70;75.00
24430;DHT22;12613;47.408;8.412;2023-08-06T02:55:36;17.60;75.20
24430;DHT22;12613;47.408;8.412;2023-08-06T02:58:02;17.70;74.80
24430;DHT22;12613;47.408;8.412;2023-08-06T03:00:28;17.70;75.00
24430;DHT22;12613;47.408;8.412;2023-08-06T03:02:53;17.70;74.90
24430;DHT22;12613;47.408;8.412;2023-08-06T03:05:19;17.70;75.00
24430;DHT22;12613;47.408;8.412;2023-08-06T03:07:45;17.70;74.80
24430;DHT22;12613;47.408;8.412;2023-08-06T03:10:11;17.80;74.70
24430;DHT22;12613;47.408;8.412;2023-08-06T03:12:36;17.80;74.80
24430;DHT22;12613;47.408;8.412;2023-08-06T03:15:02;17.70;75.10
24430;DHT22;12613;47.408;8.412;2023-08-06T03:17:28;17.70;75.20
24430;DHT22;12613;47.408;8.412;2023-08-06T03:19:53;17.70;75.20
24430;DHT22;12613;47.408;8.412;2023-08-06T03:22:19;17.70;75.80
24430;DHT22;12613;47.408;8.412;2023-08-06T03:24:45;17.70;75.60
24430;DHT22;12613;47.408;8.412;2023-08-06T03:27:10;17.60;75.80
24430;DHT22;12613;47.408;8.412;2023-08-06T03:29:36;17.60;75.90
24430;DHT22;12613;47.408;8.412;2023-08-06T03:32:01;17.60;77.00
24430;DHT22;12613;47.408;8.412;2023-08-06T03:34:27;17.60;76.20
24430;DHT22;12613;47.408;8.412;2023-08-06T03:36:53;17.60;76.60
24430;DHT22;12613;47.408;8.412;2023-08-06T03:39:18;17.60;76.50
24430;DHT22;12613;47.408;8.412;2023-08-06T03:41:44;17.50;76.70
24430;DHT22;12613;47.408;8.412;2023-08-06T03:44:10;17.50;76.90
24430;DHT22;12613;47.408;8.412;2023-08-06T03:46:35;17.50;77.10
24430;DHT22;12613;47.408;8.412;2023-08-06T03:49:01;17.40;77.20
24430;DHT22;12613;47.408;8.412;2023-08-06T03:51:26;17.40;77.60
24430;DHT22;12613;47.408;8.412;2023-08-06T03:53:52;17.40;77.80
24430;DHT22;12613;47.408;8.412;2023-08-06T03:56:17;17.40;78.00
24430;DHT22;12613;47.408;8.412;2023-08-06T03:58:43;17.40;77.90
24430;DHT22;12613;47.408;8.412;2023-08-06T04:01:09;17.30;78.30
24430;DHT22;12613;47.408;8.412;2023-08-06T04:03:34;17.30;78.70
24430;DHT22;12613;47.408;8.412;2023-08-06T04:06:02;17.20;78.90
24430;DHT22;12613;47.408;8.412;2023-08-06T04:08:28;17.20;78.90
24430;DHT22;12613;47.408;8.412;2023-08-06T04:10:53;17.30;79.40
24430;DHT22;12613;47.408;8.412;2023-08-06T04:13:19;17.20;79.30
24430;DHT22;12613;47.408;8.412;2023-08-06T04:15:45;17.20;79.40
24430;DHT22;12613;47.408;8.412;2023-08-06T04:18:11;17.20;79.70
24430;DHT22;12613;47.408;8.412;2023-08-06T04:20:44;17.10;79.70
24430;DHT22;12613;47.408;8.412;2023-08-06T04:23:10;17.10;79.80
24430;DHT22;12613;47.408;8.412;2023-08-06T04:25:36;17.10;79.40
24430;DHT22;12613;47.408;8.412;2023-08-06T04:28:01;17.00;79.20
24430;DHT22;12613;47.408;8.412;2023-08-06T04:30:27;17.00;79.10
24430;DHT22;12613;47.408;8.412;2023-08-06T04:32:53;16.90;79.20
24430;DHT22;12613;47.408;8.412;2023-08-06T04:35:18;16.80;79.10
24430;DHT22;12613;47.408;8.412;2023-08-06T04:37:44;16.80;79.10
24430;DHT22;12613;47.408;8.412;2023-08-06T04:40:10;16.70;79.30
24430;DHT22;12613;47.408;8.412;2023-08-06T04:42:36;16.60;79.50
24430;DHT22;12613;47.408;8.412;2023-08-06T04:45:02;16.50;79.80
24430;DHT22;12613;47.408;8.412;2023-08-06T04:47:27;16.40;80.10
24430;DHT22;12613;47.408;8.412;2023-08-06T04:49:53;16.40;80.60
24430;DHT22;12613;47.408;8.412;2023-08-06T04:52:19;16.30;80.80
24430;DHT22;12613;47.408;8.412;2023-08-06T04:54:45;16.20;80.90
24430;DHT22;12613;47.408;8.412;2023-08-06T04:57:10;16.10;81.20
24430;DHT22;12613;47.408;8.412;2023-08-06T04:59:36;16.00;81.70
24430;DHT22;12613;47.408;8.412;2023-08-06T05:02:02;16.00;82.10
24430;DHT22;12613;47.408;8.412;2023-08-06T05:04:27;15.90;82.30
24430;DHT22;12613;47.408;8.412;2023-08-06T05:06:54;15.80;83.00
24430;DHT22;12613;47.408;8.412;2023-08-06T05:09:19;15.80;83.30
24430;DHT22;12613;47.408;8.412;2023-08-06T05:11:46;15.70;83.60
24430;DHT22;12613;47.408;8.412;2023-08-06T05:14:12;15.70;84.00
24430;DHT22;12613;47.408;8.412;2023-08-06T05:16:38;15.60;84.00
24430;DHT22;12613;47.408;8.412;2023-08-06T05:19:03;15.60;84.40
24430;DHT22;12613;47.408;8.412;2023-08-06T05:21:29;15.60;85.30
24430;DHT22;12613;47.408;8.412;2023-08-06T05:23:54;15.70;85.80
24430;DHT22;12613;47.408;8.412;2023-08-06T05:26:20;15.70;86.20
24430;DHT22;12613;47.408;8.412;2023-08-06T05:28:46;15.70;86.00
24430;DHT22;12613;47.408;8.412;2023-08-06T05:31:12;15.80;86.60
24430;DHT22;12613;47.408;8.412;2023-08-06T05:33:37;15.90;86.40
24430;DHT22;12613;47.408;8.412;2023-08-06T05:36:03;16.00;86.40
24430;DHT22;12613;47.408;8.412;2023-08-06T05:38:29;16.00;86.50
24430;DHT22;12613;47.408;8.412;2023-08-06T05:40:55;16.10;86.40
24430;DHT22;12613;47.408;8.412;2023-08-06T05:43:22;16.10;86.60
24430;DHT22;12613;47.408;8.412;2023-08-06T05:45:49;16.20;86.50
24430;DHT22;12613;47.408;8.412;2023-08-06T05:48:15;16.20;86.50
24430;DHT22;12613;47.408;8.412;2023-08-06T05:50:41;16.20;86.20
24430;DHT22;12613;47.408;8.412;2023-08-06T05:53:07;16.20;86.70
24430;DHT22;12613;47.408;8.412;2023-08-06T05:55:33;16.30;86.70
24430;DHT22;12613;47.408;8.412;2023-08-06T05:57:59;16.40;86.50
24430;DHT22;12613;47.408;8.412;2023-08-06T06:00:25;16.40;86.40
24430;DHT22;12613;47.408;8.412;2023-08-06T06:02:51;16.40;86.20
24430;DHT22;12613;47.408;8.412;2023-08-06T06:05:16;16.50;86.10
24430;DHT22;12613;47.408;8.412;2023-08-06T06:07:42;16.50;85.90
24430;DHT22;12613;47.408;8.412;2023-08-06T06:10:08;16.50;86.00
24430;DHT22;12613;47.408;8.412;2023-08-06T06:12:34;16.40;84.70
24430;DHT22;12613;47.408;8.412;2023-08-06T06:14:59;16.40;85.00
24430;DHT22;12613;47.408;8.412;2023-08-06T06:17:26;16.40;84.90
24430;DHT22;12613;47.408;8.412;2023-08-06T06:19:52;16.40;85.20
24430;DHT22;12613;47.408;8.412;2023-08-06T06:22:18;16.50;85.50
24430;DHT22;12613;47.408;8.412;2023-08-06T06:24:43;16.50;84.40
24430;DHT22;12613;47.408;8.412;2023-08-06T06:27:09;16.60;84.30
24430;DHT22;12613;47.408;8.412;2023-08-06T06:29:35;16.60;83.50
24430;DHT22;12613;47.408;8.412;2023-08-06T06:32:00;16.60;83.20
24430;DHT22;12613;47.408;8.412;2023-08-06T06:34:26;16.60;83.90
24430;DHT22;12613;47.408;8.412;2023-08-06T06:36:52;16.60;84.40
24430;DHT22;12613;47.408;8.412;2023-08-06T06:39:17;16.70;84.30
24430;DHT22;12613;47.408;8.412;2023-08-06T06:41:43;16.80;83.40
24430;DHT22;12613;47.408;8.412;2023-08-06T06:44:09;16.80;83.90
24430;DHT22;12613;47.408;8.412;2023-08-06T06:46:35;16.90;82.70
24430;DHT22;12613;47.408;8.412;2023-08-06T06:49:01;16.90;81.90
24430;DHT22;12613;47.408;8.412;2023-08-06T06:51:27;16.90;81.30
24430;DHT22;12613;47.408;8.412;2023-08-06T06:53:53;16.80;80.80
24430;DHT22;12613;47.408;8.412;2023-08-06T06:56:19;16.80;81.30
24430;DHT22;12613;47.408;8.412;2023-08-06T06:58:45;16.80;81.10
24430;DHT22;12613;47.408;8.412;2023-08-06T07:01:11;16.80;81.10
24430;DHT22;12613;47.408;8.412;2023-08-06T07:03:37;16.80;80.60
24430;DHT22;12613;47.408;8.412;2023-08-06T07:06:03;16.80;81.10
24430;DHT22;12613;47.408;8.412;2023-08-06T07:08:29;16.80;80.60
24430;DHT22;12613;47.408;8.412;2023-08-06T07:11:05;16.70;81.30
24430;DHT22;12613;47.408;8.412;2023-08-06T07:13:32;16.70;81.80
24430;DHT22;12613;47.408;8.412;2023-08-06T07:15:58;16.70;82.00
24430;DHT22;12613;47.408;8.412;2023-08-06T07:18:24;16.70;81.00
24430;DHT22;12613;47.408;8.412;2023-08-06T07:20:50;16.60;81.20
24430;DHT22;12613;47.408;8.412;2023-08-06T07:23:17;16.60;82.10
24430;DHT22;12613;47.408;8.412;2023-08-06T07:25:42;16.50;81.60
24430;DHT22;12613;47.408;8.412;2023-08-06T07:28:09;16.50;81.90
24430;DHT22;12613;47.408;8.412;2023-08-06T07:30:38;16.50;82.30
24430;DHT22;12613;47.408;8.412;2023-08-06T07:33:04;16.60;82.00
24430;DHT22;12613;47.408;8.412;2023-08-06T07:35:29;16.60;82.30
24430;DHT22;12613;47.408;8.412;2023-08-06T07:37:55;16.60;81.00
24430;DHT22;12613;47.408;8.412;2023-08-06T07:40:21;16.70;81.70
24430;DHT22;12613;47.408;8.412;2023-08-06T07:42:46;16.70;81.60
24430;DHT22;12613;47.408;8.412;2023-08-06T07:45:12;16.70;81.50
24430;DHT22;12613;47.408;8.412;2023-08-06T07:47:37;16.70;80.80
24430;DHT22;12613;47.408;8.412;2023-08-06T07:50:03;16.60;80.80
24430;DHT22;12613;47.408;8.412;2023-08-06T07:52:29;16.50;82.20
24430;DHT22;12613;47.408;8.412;2023-08-06T07:54:55;16.50;82.40
24430;DHT22;12613;47.408;8.412;2023-08-06T07:57:20;16.50;82.80
24430;DHT22;12613;47.408;8.412;2023-08-06T07:59:46;16.40;82.70
24430;DHT22;12613;47.408;8.412;2023-08-06T08:02:11;16.30;83.60
24430;DHT22;12613;47.408;8.412;2023-08-06T08:04:37;16.40;84.40
24430;DHT22;12613;47.408;8.412;2023-08-06T08:07:03;16.40;85.00
24430;DHT22;12613;47.408;8.412;2023-08-06T08:09:28;16.40;84.10
24430;DHT22;12613;47.408;8.412;2023-08-06T08:11:54;16.30;85.20
24430;DHT22;12613;47.408;8.412;2023-08-06T08:14:20;16.30;85.30
24430;DHT22;12613;47.408;8.412;2023-08-06T08:16:45;16.30;85.20
24430;DHT22;12613;47.408;8.412;2023-08-06T08:19:11;16.20;85.30
24430;DHT22;12613;47.408;8.412;2023-08-06T08:21:37;16.30;85.60
24430;DHT22;12613;47.408;8.412;2023-08-06T08:24:04;16.20;84.90
24430;DHT22;12613;47.408;8.412;2023-08-06T08:26:30;16.00;84.90
24430;DHT22;12613;47.408;8.412;2023-08-06T08:28:56;15.80;85.00
24430;DHT22;12613;47.408;8.412;2023-08-06T08:31:22;15.70;85.90
24430;DHT22;12613;47.408;8.412;2023-08-06T08:33:48;15.50;86.50
24430;DHT22;12613;47.408;8.412;2023-08-06T08:36:13;15.40;86.70
24430;DHT22;12613;47.408;8.412;2023-08-06T08:38:39;15.30;87.80
24430;DHT22;12613;47.408;8.412;2023-08-06T08:41:05;15.20;88.70
24430;DHT22;12613;47.408;8.412;2023-08-06T08:43:31;15.10;88.00
24430;DHT22;12613;47.408;8.412;2023-08-06T08:45:57;15.00;88.50
24430;DHT22;12613;47.408;8.412;2023-08-06T08:48:27;15.00;89.60
24430;DHT22;12613;47.408;8.412;2023-08-06T08:50:53;14.90;89.40
24430;DHT22;12613;47.408;8.412;2023-08-06T08:53:19;14.90;90.00
24430;DHT22;12613;47.408;8.412;2023-08-06T08:55:50;14.90;90.40
24430;DHT22;12613;47.408;8.412;2023-08-06T08:58:15;14.90;90.30
24430;DHT22;12613;47.408;8.412;2023-08-06T09:00:46;14.90;90.80
24430;DHT22;12613;47.408;8.412;2023-08-06T09:03:12;14.90;90.90
24430;DHT22;12613;47.408;8.412;2023-08-06T09:05:43;15.00;91.70
24430;DHT22;12613;47.408;8.412;2023-08-06T09:08:11;15.00;91.50
24430;DHT22;12613;47.408;8.412;2023-08-06T09:10:40;15.10;91.50
24430;DHT22;12613;47.408;8.412;2023-08-06T09:13:06;15.20;91.60
24430;DHT22;12613;47.408;8.412;2023-08-06T09:15:32;15.20;91.30
24430;DHT22;12613;47.408;8.412;2023-08-06T09:17:59;15.20;91.60
24430;DHT22;12613;47.408;8.412;2023-08-06T09:20:24;15.10;91.70
24430;DHT22;12613;47.408;8.412;2023-08-06T09:22:53;15.10;91.80
24430;DHT22;12613;47.408;8.412;2023-08-06T09:25:25;15.10;92.10
24430;DHT22;12613;47.408;8.412;2023-08-06T09:27:51;15.20;92.10
24430;DHT22;12613;47.408;8.412;2023-08-06T09:30:31;15.20;91.90
24430;DHT22;12613;47.408;8.412;2023-08-06T09:32:58;15.10;92.20
24430;DHT22;12613;47.408;8.412;2023-08-06T09:35:23;15.00;92.40
24430;DHT22;12613;47.408;8.412;2023-08-06T09:37:49;15.00;92.40
24430;DHT22;12613;47.408;8.412;2023-08-06T09:40:25;15.00;92.50
24430;DHT22;12613;47.408;8.412;2023-08-06T09:42:52;15.10;92.50
24430;DHT22;12613;47.408;8.412;2023-08-06T09:45:18;15.20;92.60
24430;DHT22;12613;47.408;8.412;2023-08-06T09:47:43;15.20;92.60
24430;DHT22;12613;47.408;8.412;2023-08-06T09:50:19;15.20;92.60
24430;DHT22;12613;47.408;8.412;2023-08-06T09:52:46;15.20;92.40
24430;DHT22;12613;47.408;8.412;2023-08-06T09:55:13;15.30;92.50
24430;DHT22;12613;47.408;8.412;2023-08-06T09:57:42;15.20;92.60
24430;DHT22;12613;47.408;8.412;2023-08-06T10:00:09;15.10;92.50
24430;DHT22;12613;47.408;8.412;2023-08-06T10:02:39;15.10;92.60
24430;DHT22;12613;47.408;8.412;2023-08-06T10:05:07;15.10;92.80
24430;DHT22;12613;47.408;8.412;2023-08-06T10:07:33;15.20;92.80
24430;DHT22;12613;47.408;8.412;2023-08-06T10:09:59;15.20;92.90
24430;DHT22;12613;47.408;8.412;2023-08-06T10:12:27;15.10;92.90
24430;DHT22;12613;47.408;8.412;2023-08-06T10:14:56;15.10;92.80
24430;DHT22;12613;47.408;8.412;2023-08-06T10:17:23;15.10;92.80
24430;DHT22;12613;47.408;8.412;2023-08-06T10:19:50;15.00;92.80
24430;DHT22;12613;47.408;8.412;2023-08-06T10:22:17;14.90;92.70
24430;DHT22;12613;47.408;8.412;2023-08-06T10:27:11;14.90;93.10
24430;DHT22;12613;47.408;8.412;2023-08-06T10:29:37;15.00;93.10
24430;DHT22;12613;47.408;8.412;2023-08-06T10:32:03;14.90;92.80
24430;DHT22;12613;47.408;8.412;2023-08-06T10:34:53;15.00;93.20
24430;DHT22;12613;47.408;8.412;2023-08-06T10:37:19;15.00;93.00
24430;DHT22;12613;47.408;8.412;2023-08-06T10:39:52;15.00;93.40
24430;DHT22;12613;47.408;8.412;2023-08-06T10:42:21;15.00;93.00
24430;DHT22;12613;47.408;8.412;2023-08-06T10:45:16;15.00;93.20
24430;DHT22;12613;47.408;8.412;2023-08-06T10:47:42;15.00;93.40
24430;DHT22;12613;47.408;8.412;2023-08-06T10:50:12;15.00;93.10
24430;DHT22;12613;47.408;8.412;2023-08-06T10:52:39;14.90;93.20
24430;DHT22;12613;47.408;8.412;2023-08-06T10:55:05;14.90;93.30
24430;DHT22;12613;47.408;8.412;2023-08-06T10:57:30;14.90;93.50
24430;DHT22;12613;47.408;8.412;2023-08-06T10:59:56;14.90;93.50
24430;DHT22;12613;47.408;8.412;2023-08-06T11:02:22;14.90;93.40
24430;DHT22;12613;47.408;8.412;2023-08-06T11:04:48;14.90;93.50
24430;DHT22;12613;47.408;8.412;2023-08-06T11:07:14;14.90;93.60
24430;DHT22;12613;47.408;8.412;2023-08-06T11:09:40;15.00;93.70
24430;DHT22;12613;47.408;8.412;2023-08-06T11:12:11;15.00;93.90
24430;DHT22;12613;47.408;8.412;2023-08-06T11:14:37;15.10;93.60
24430;DHT22;12613;47.408;8.412;2023-08-06T11:17:05;15.10;93.60
24430;DHT22;12613;47.408;8.412;2023-08-06T11:19:31;15.10;93.50
24430;DHT22;12613;47.408;8.412;2023-08-06T11:21:56;15.10;93.40
24430;DHT22;12613;47.408;8.412;2023-08-06T11:24:24;15.20;93.90
24430;DHT22;12613;47.408;8.412;2023-08-06T11:26:49;15.30;94.10
24430;DHT22;12613;47.408;8.412;2023-08-06T11:29:16;15.40;94.80
24430;DHT22;12613;47.408;8.412;2023-08-06T11:31:41;15.50;94.00
24430;DHT22;12613;47.408;8.412;2023-08-06T11:34:07;15.60;93.70
24430;DHT22;12613;47.408;8.412;2023-08-06T11:36:37;15.70;93.90
24430;DHT22;12613;47.408;8.412;2023-08-06T11:39:05;15.60;93.30
24430;DHT22;12613;47.408;8.412;2023-08-06T11:41:35;15.60;93.40
24430;DHT22;12613;47.408;8.412;2023-08-06T11:44:03;15.50;93.40
24430;DHT22;12613;47.408;8.412;2023-08-06T11:46:29;15.60;93.40
24430;DHT22;12613;47.408;8.412;2023-08-06T11:48:56;15.50;93.50
24430;DHT22;12613;47.408;8.412;2023-08-06T11:51:25;15.50;93.40
24430;DHT22;12613;47.408;8.412;2023-08-06T11:53:58;15.50;93.60
24430;DHT22;12613;47.408;8.412;2023-08-06T11:56:27;15.50;93.80
24430;DHT22;12613;47.408;8.412;2023-08-06T11:58:54;15.50;93.80
24430;DHT22;12613;47.408;8.412;2023-08-06T12:01:20;15.60;93.80
24430;DHT22;12613;47.408;8.412;2023-08-06T12:03:46;15.60;93.60
24430;DHT22;12613;47.408;8.412;2023-08-06T12:06:11;15.60;93.50
24430;DHT22;12613;47.408;8.412;2023-08-06T12:08:37;15.60;93.60
24430;DHT22;12613;47.408;8.412;2023-08-06T12:11:03;15.70;93.70
24430;DHT22;12613;47.408;8.412;2023-08-06T12:13:29;15.70;93.50
24430;DHT22;12613;47.408;8.412;2023-08-06T12:15:55;15.70;93.60
24430;DHT22;12613;47.408;8.412;2023-08-06T12:18:22;15.70;93.50
24430;DHT22;12613;47.408;8.412;2023-08-06T12:20:48;15.70;93.40
24430;DHT22;12613;47.408;8.412;2023-08-06T12:23:14;15.60;93.40
24430;DHT22;12613;47.408;8.412;2023-08-06T12:25:41;15.60;93.50
24430;DHT22;12613;47.408;8.412;2023-08-06T12:28:07;15.50;93.30
24430;DHT22;12613;47.408;8.412;2023-08-06T12:30:34;15.40;93.40
24430;DHT22;12613;47.408;8.412;2023-08-06T12:33:00;15.30;93.30
24430;DHT22;12613;47.408;8.412;2023-08-06T12:35:25;15.20;93.50
24430;DHT22;12613;47.408;8.412;2023-08-06T12:37:51;15.10;93.90
24430;DHT22;12613;47.408;8.412;2023-08-06T12:40:22;15.10;94.00
24430;DHT22;12613;47.408;8.412;2023-08-06T12:42:50;15.10;94.10
24430;DHT22;12613;47.408;8.412;2023-08-06T12:45:15;15.20;94.20
24430;DHT22;12613;47.408;8.412;2023-08-06T12:47:41;15.20;94.20
24430;DHT22;12613;47.408;8.412;2023-08-06T12:50:07;15.20;93.90
24430;DHT22;12613;47.408;8.412;2023-08-06T12:52:33;15.10;94.00
24430;DHT22;12613;47.408;8.412;2023-08-06T12:54:58;15.10;94.00
24430;DHT22;12613;47.408;8.412;2023-08-06T12:57:24;15.10;94.10
24430;DHT22;12613;47.408;8.412;2023-08-06T12:59:49;15.20;94.00
24430;DHT22;12613;47.408;8.412;2023-08-06T13:02:15;15.20;94.00
24430;DHT22;12613;47.408;8.412;2023-08-06T13:04:41;15.10;93.80
24430;DHT22;12613;47.408;8.412;2023-08-06T13:07:06;15.10;93.90
24430;DHT22;12613;47.408;8.412;2023-08-06T13:09:32;15.00;93.90
24430;DHT22;12613;47.408;8.412;2023-08-06T13:11:58;15.00;94.10
24430;DHT22;12613;47.408;8.412;2023-08-06T13:14:25;15.00;94.10
24430;DHT22;12613;47.408;8.412;2023-08-06T13:16:51;15.00;94.40
24430;DHT22;12613;47.408;8.412;2023-08-06T13:19:16;15.10;94.40
24430;DHT22;12613;47.408;8.412;2023-08-06T13:24:15;15.10;94.60
24430;DHT22;12613;47.408;8.412;2023-08-06T13:26:41;15.20;94.70
24430;DHT22;12613;47.408;8.412;2023-08-06T13:29:06;15.20;94.40
24430;DHT22;12613;47.408;8.412;2023-08-06T13:31:36;15.30;94.60
24430;DHT22;12613;47.408;8.412;2023-08-06T13:34:02;15.50;94.90
24430;DHT22;12613;47.408;8.412;2023-08-06T13:36:28;15.60;94.90
24430;DHT22;12613;47.408;8.412;2023-08-06T13:38:54;15.70;95.00
24430;DHT22;12613;47.408;8.412;2023-08-06T13:41:19;15.90;95.10
24430;DHT22;12613;47.408;8.412;2023-08-06T13:43:45;16.00;95.10
24430;DHT22;12613;47.408;8.412;2023-08-06T13:46:11;16.10;94.00
24430;DHT22;12613;47.408;8.412;2023-08-06T13:48:42;16.10;94.30
24430;DHT22;12613;47.408;8.412;2023-08-06T13:51:08;16.20;94.30
24430;DHT22;12613;47.408;8.412;2023-08-06T13:53:34;16.30;94.20
24430;DHT22;12613;47.408;8.412;2023-08-06T13:55:59;16.30;94.50
24430;DHT22;12613;47.408;8.412;2023-08-06T13:58:25;16.40;94.30
24430;DHT22;12613;47.408;8.412;2023-08-06T14:00:52;16.40;94.10
24430;DHT22;12613;47.408;8.412;2023-08-06T14:03:19;16.40;93.60
24430;DHT22;12613;47.408;8.412;2023-08-06T14:05:45;16.40;93.70
24430;DHT22;12613;47.408;8.412;2023-08-06T14:08:11;16.30;94.60
24430;DHT22;12613;47.408;8.412;2023-08-06T14:10:36;16.60;95.40
24430;DHT22;12613;47.408;8.412;2023-08-06T14:13:02;16.70;94.10
24430;DHT22;12613;47.408;8.412;2023-08-06T14:15:27;16.70;93.60
24430;DHT22;12613;47.408;8.412;2023-08-06T14:17:53;16.80;94.60
24430;DHT22;12613;47.408;8.412;2023-08-06T14:20:19;17.00;94.20
24430;DHT22;12613;47.408;8.412;2023-08-06T14:22:44;17.30;94.30
24430;DHT22;12613;47.408;8.412;2023-08-06T14:25:10;17.50;94.20
24430;DHT22;12613;47.408;8.412;2023-08-06T14:27:36;17.60;93.00
24430;DHT22;12613;47.408;8.412;2023-08-06T14:30:02;17.60;91.90
24430;DHT22;12613;47.408;8.412;2023-08-06T14:32:29;17.50;91.60
24430;DHT22;12613;47.408;8.412;2023-08-06T14:34:54;17.40;91.40
24430;DHT22;12613;47.408;8.412;2023-08-06T14:37:20;17.40;91.50
24430;DHT22;12613;47.408;8.412;2023-08-06T14:39:45;17.60;91.60
24430;DHT22;12613;47.408;8.412;2023-08-06T14:42:11;17.60;90.70
24430;DHT22;12613;47.408;8.412;2023-08-06T14:44:37;17.70;91.00
24430;DHT22;12613;47.408;8.412;2023-08-06T14:47:02;17.80;90.50
24430;DHT22;12613;47.408;8.412;2023-08-06T14:49:28;17.80;90.00
24430;DHT22;12613;47.408;8.412;2023-08-06T14:51:54;17.80;87.60
24430;DHT22;12613;47.408;8.412;2023-08-06T14:54:19;17.60;87.80
24430;DHT22;12613;47.408;8.412;2023-08-06T14:56:45;17.60;88.10
24430;DHT22;12613;47.408;8.412;2023-08-06T14:59:11;17.60;88.60
24430;DHT22;12613;47.408;8.412;2023-08-06T15:01:36;17.60;87.80
24430;DHT22;12613;47.408;8.412;2023-08-06T15:04:02;17.70;88.10
24430;DHT22;12613;47.408;8.412;2023-08-06T15:06:28;17.70;87.40
24430;DHT22;12613;47.408;8.412;2023-08-06T15:08:53;17.70;87.30
24430;DHT22;12613;47.408;8.412;2023-08-06T15:11:23;17.80;86.80
24430;DHT22;12613;47.408;8.412;2023-08-06T15:13:49;17.70;86.10
24430;DHT22;12613;47.408;8.412;2023-08-06T15:16:14;17.70;86.60
24430;DHT22;12613;47.408;8.412;2023-08-06T15:18:40;17.70;85.70
24430;DHT22;12613;47.408;8.412;2023-08-06T15:21:05;17.70;85.40
24430;DHT22;12613;47.408;8.412;2023-08-06T15:23:31;17.60;85.00
24430;DHT22;12613;47.408;8.412;2023-08-06T15:25:57;17.60;85.10
24430;DHT22;12613;47.408;8.412;2023-08-06T15:28:22;17.60;85.10
24430;DHT22;12613;47.408;8.412;2023-08-06T15:30:49;17.60;85.00
24430;DHT22;12613;47.408;8.412;2023-08-06T15:33:17;17.60;85.40
24430;DHT22;12613;47.408;8.412;2023-08-06T15:35:42;17.60;85.00
24430;DHT22;12613;47.408;8.412;2023-08-06T15:38:08;17.50;84.40
24430;DHT22;12613;47.408;8.412;2023-08-06T15:40:34;17.50;83.40